Flight Track Log - Related Links

Times and Time Zones

All times are in EDT time to prevent confusion due to time zone crossing. See the N153RB flight status page for this flight to view local times or setup timezone preferences in your user account.

Time Position Orientation Groundspeed Altitude Reporting Facility
EDT Latitude Longitude Course Direction KTS MPH feet Rate Location/Type
Fri 08:19:41 PM 36.1667 -86.6667 12° North 211 243 3,000  Level Nashville TRACON
Fri 08:20:35 PM 36.2167 -86.6833 345° North 230 265 5,700 3,292 Climbing Nashville TRACON
Fri 08:22:05 PM 36.1600 -86.7667 230° Southwest 222 255 10,900 3,079 Climbing Memphis Center
Fri 08:23:07 PM 36.0892 -86.8192 211° Southwest 279 321 13,500 2,565 Climbing Memphis Center
Fri 08:24:09 PM 36.0067 -86.8772 210° Southwest 324 373 16,200 2,736 Climbing Memphis Center
Fri 08:25:12 PM 35.8975 -86.9367 204° Southwest 357 411 19,200 2,736 Climbing Memphis Center
Fri 08:26:14 PM 35.8011 -86.9897 204° Southwest 369 425 21,900 1,839 Climbing Memphis Center
Fri 08:27:16 PM 35.7044 -87.0436 204° Southwest 374 430 23,000 677 Climbing Memphis Center
Fri 08:28:18 PM 35.5944 -87.1047 204° Southwest 426 490 23,300 435 Climbing Memphis Center
Fri 08:29:20 PM 35.4828 -87.1667 204° Southwest 433 498 23,900 581 Climbing Memphis Center
Fri 08:30:22 PM 35.3742 -87.2256 204° Southwest 439 505 24,500 871 Climbing Memphis Center
Fri 08:31:24 PM 35.2636 -87.2861 204° Southwest 439 505 25,700 774 Climbing Memphis Center
Fri 08:32:26 PM 35.1328 -87.3583 204° Southwest 434 499 26,100 195 Climbing Memphis Center
Fri 08:33:27 PM 35.0203 -87.4197 204° Southwest 440 506 26,100  Level Memphis Center
Fri 08:34:29 PM 34.9064 -87.4817 204° Southwest 444 511 26,100  Level Memphis Center
Fri 08:35:31 PM 34.7919 -87.5436 204° Southwest 447 514 26,100  Level Memphis Center
Fri 08:36:33 PM 34.6781 -87.6053 204° Southwest 448 516 26,100  Level Memphis Center
Fri 08:37:35 PM 34.5547 -87.6722 204° Southwest 453 521 26,100  Level Memphis Center
Fri 08:38:37 PM 34.4375 -87.7369 204° Southwest 456 525 26,100 -97 Level Memphis Center
Fri 08:39:39 PM 34.2961 -87.8122 204° Southwest 458 527 25,900 -774 Descending Memphis Center
Fri 08:40:41 PM 34.1964 -87.8647 204° Southwest 458 527 24,500 -871 Descending Memphis Center
Fri 08:41:43 PM 34.0564 -87.9394 204° Southwest 458 527 24,100 -194 Descending Memphis Center
Fri 08:42:45 PM 33.9378 -88.0017 204° Southwest 463 533 24,100  Level Memphis Center
Fri 08:43:46 PM 33.8192 -88.0656 204° Southwest 463 533 24,100  Level Memphis Center
Fri 08:44:48 PM 33.7006 -88.1281 204° Southwest 467 537 24,100  Level Memphis Center
Fri 08:45:50 PM 33.5825 -88.1906 204° Southwest 467 537 24,100  Level Memphis Center
Fri 08:46:52 PM 33.4622 -88.2531 203° Southwest 467 537 24,100  Level Memphis Center
Fri 08:47:54 PM 33.3433 -88.3158 204° Southwest 467 537 24,100  Level Memphis Center
Fri 08:48:56 PM 33.2014 -88.3908 204° Southwest 467 537 24,100  Level Memphis Center
Fri 08:49:58 PM 33.0822 -88.4508 203° Southwest 467 537 24,100 -49 Level Memphis Center
Fri 08:50:59 PM 32.9642 -88.5128 204° Southwest 466 536 24,000 -976 Descending Memphis Center
Fri 08:52:01 PM 32.8497 -88.5714 203° Southwest 453 521 22,100 -2,177 Descending Memphis Center
Fri 08:53:03 PM 32.7283 -88.6353 204° Southwest 447 514 19,500 -2,390 Descending Memphis Center
Fri 08:54:04 PM 32.6194 -88.6903 203° Southwest 433 498 17,200 -2,341 Descending Memphis Center
Fri 08:55:06 PM 32.5158 -88.7461 204° Southwest 417 480 14,700 -1,984 Descending Memphis Center
Fri 08:56:08 PM 32.4133 -88.7989 203° Southwest 407 468 13,100 -1,258 Descending Memphis Center
Fri 08:57:10 PM 32.3239 -88.8422 202° Southwest 359 413 12,100 -1,073 Descending Memphis Center
Fri 08:58:11 PM 32.2206 -88.8950 203° Southwest 342 394 10,900 -1,220 Descending Memphis Center
Fri 08:59:13 PM 32.1369 -88.9394 204° Southwest 337 388 9,600 -1,839 Descending Memphis Center
Fri 09:00:15 PM 32.0617 -88.9761 202° Southwest 305 351 7,100 -2,390 Descending Memphis Center
Fri 09:01:16 PM 31.9914 -89.0117 203° Southwest 291 335 4,700 -2,361 Descending Memphis Center

Login

Don't have an account? Register now (free) for customized features, flight alerts, and more!